createdAt,value
2022-10-16T00:01:25.154Z,100.00
2022-10-16T00:06:27.003Z,100.00
2022-10-16T00:11:31.456Z,100.00
2022-10-16T00:16:33.074Z,100.00
2022-10-16T00:21:34.739Z,100.00
2022-10-16T00:26:37.536Z,100.00
2022-10-16T00:31:38.816Z,100.00
2022-10-16T00:36:40.048Z,100.00
2022-10-16T00:41:41.664Z,100.00
2022-10-16T00:46:43.269Z,100.00
2022-10-16T00:51:48.991Z,100.00
2022-10-16T00:56:51.093Z,100.00
2022-10-16T01:01:53.905Z,100.00
2022-10-16T01:07:13.264Z,100.00
2022-10-16T01:12:38.435Z,100.00
2022-10-16T01:17:55.551Z,100.00
2022-10-16T01:22:59.915Z,100.00
2022-10-16T01:28:04.463Z,100.00
2022-10-16T01:33:20.765Z,100.00
2022-10-16T01:38:36.566Z,100.00
2022-10-16T01:43:44.466Z,100.00
2022-10-16T01:48:46.471Z,100.00
2022-10-16T01:53:58.271Z,100.00
2022-10-16T01:59:10.620Z,100.00
2022-10-16T02:04:49.883Z,100.00
2022-10-16T02:09:51.132Z,100.00
2022-10-16T02:14:52.685Z,100.00
2022-10-16T02:19:57.091Z,100.00
2022-10-16T02:25:18.286Z,100.00
2022-10-16T02:30:35.550Z,100.00
2022-10-16T02:35:38.701Z,100.00
2022-10-16T02:40:39.992Z,100.00
2022-10-16T02:45:41.834Z,100.00
2022-10-16T02:50:43.113Z,100.00
2022-10-16T02:55:44.436Z,100.00
2022-10-16T03:00:45.721Z,100.00
2022-10-16T03:05:46.972Z,100.00
2022-10-16T03:10:48.200Z,100.00
2022-10-16T03:15:49.587Z,100.00
2022-10-16T03:20:50.830Z,100.00
2022-10-16T03:25:52.114Z,100.00
2022-10-16T03:30:53.362Z,100.00
2022-10-16T03:35:55.597Z,100.00
2022-10-16T03:40:56.887Z,100.00
2022-10-16T03:45:58.143Z,100.00
2022-10-16T03:50:59.397Z,100.00
2022-10-16T03:56:01.068Z,100.00
2022-10-16T04:01:02.420Z,100.00
2022-10-16T04:06:03.840Z,100.00
2022-10-16T04:11:05.255Z,100.00
2022-10-16T04:16:06.724Z,100.00
2022-10-16T04:21:08.270Z,100.00
2022-10-16T04:26:11.138Z,100.00
2022-10-16T04:31:12.402Z,100.00
2022-10-16T04:36:14.051Z,100.00
2022-10-16T04:41:15.364Z,100.00
2022-10-16T04:46:16.686Z,100.00
2022-10-16T04:51:19.546Z,100.00
2022-10-16T04:56:21.703Z,100.00
2022-10-16T05:01:22.994Z,100.00
2022-10-16T05:06:24.338Z,100.00
2022-10-16T05:11:25.636Z,100.00
2022-10-16T05:16:26.934Z,100.00
2022-10-16T05:21:28.163Z,100.00
2022-10-16T05:26:29.422Z,100.00
2022-10-16T05:31:30.872Z,100.00
2022-10-16T05:36:32.177Z,100.00
2022-10-16T05:41:33.530Z,100.00
2022-10-16T05:46:34.802Z,100.00
2022-10-16T05:51:36.083Z,100.00
2022-10-16T05:56:37.373Z,100.00
2022-10-16T06:01:38.687Z,100.00
2022-10-16T06:06:40.053Z,100.00
2022-10-16T06:11:41.363Z,100.00
2022-10-16T06:16:42.856Z,100.00
2022-10-16T06:21:44.250Z,100.00
2022-10-16T06:26:45.557Z,100.00
2022-10-16T06:31:46.804Z,100.00
2022-10-16T06:36:48.208Z,100.00
2022-10-16T06:41:49.858Z,100.00
2022-10-16T06:46:52.140Z,100.00
2022-10-16T06:51:53.384Z,100.00
2022-10-16T06:56:55.505Z,100.00
2022-10-16T07:01:56.847Z,100.00
2022-10-16T07:06:58.098Z,100.00
2022-10-16T07:11:59.392Z,100.00
2022-10-16T07:17:00.638Z,100.00
2022-10-16T07:22:02.177Z,100.00
2022-10-16T07:27:03.706Z,100.00
2022-10-16T07:32:05.219Z,100.00
2022-10-16T07:37:06.549Z,100.00
2022-10-16T07:42:08.648Z,100.00
2022-10-16T07:47:10.263Z,100.00
2022-10-16T07:52:11.506Z,100.00
2022-10-16T07:57:12.943Z,100.00
2022-10-16T08:02:14.225Z,100.00
2022-10-16T08:07:15.481Z,100.00
2022-10-16T08:12:16.728Z,100.00
2022-10-16T08:17:18.025Z,100.00
2022-10-16T08:22:19.266Z,100.00
2022-10-16T08:27:20.612Z,100.00
2022-10-16T08:32:25.244Z,100.00
2022-10-16T08:37:33.468Z,100.00
2022-10-16T08:42:34.699Z,100.00
2022-10-16T08:48:01.041Z,100.00
2022-10-16T08:53:05.911Z,100.00
2022-10-16T08:58:27.505Z,100.00
2022-10-16T09:04:05.436Z,100.00
2022-10-16T09:09:14.744Z,100.00
2022-10-16T09:14:37.237Z,100.00
2022-10-16T09:19:47.525Z,100.00
2022-10-16T09:24:49.069Z,100.00
2022-10-16T09:29:50.311Z,100.00
2022-10-16T09:34:55.257Z,100.00
2022-10-16T09:39:56.587Z,100.00
2022-10-16T09:44:58.446Z,100.00
2022-10-16T09:50:05.042Z,100.00
2022-10-16T09:55:18.834Z,100.00
2022-10-16T10:00:21.764Z,100.00
2022-10-16T10:05:25.910Z,100.00
2022-10-16T10:10:30.909Z,100.00
2022-10-16T10:15:36.760Z,100.00
2022-10-16T10:20:39.628Z,100.00
2022-10-16T10:25:57.147Z,96.20
2022-10-16T10:31:13.926Z,84.52
2022-10-16T10:36:38.496Z,83.15
2022-10-16T10:41:47.256Z,86.24
2022-10-16T10:46:57.958Z,86.54
2022-10-16T10:52:21.111Z,82.74
2022-10-16T10:57:44.061Z,78.96
2022-10-16T11:03:07.162Z,56.44
2022-10-16T11:08:33.558Z,42.25
2022-10-16T11:13:44.933Z,38.21
2022-10-16T11:19:24.684Z,35.43
2022-10-16T11:24:36.950Z,32.46
2022-10-16T11:29:48.563Z,31.44
2022-10-16T11:34:59.744Z,33.32
2022-10-16T11:40:17.139Z,30.41
2022-10-16T11:45:33.905Z,36.71
2022-10-16T11:50:44.690Z,46.44
2022-10-16T11:55:47.295Z,57.63
2022-10-16T12:00:58.628Z,61.43
2022-10-16T12:06:20.151Z,51.82
2022-10-16T12:11:24.485Z,34.37
2022-10-16T12:16:25.793Z,34.24
2022-10-16T12:21:31.655Z,30.42
2022-10-16T12:26:40.083Z,34.25
2022-10-16T12:31:54.809Z,36.13
2022-10-16T12:37:11.272Z,28.93
2022-10-16T12:42:27.040Z,25.51
2022-10-16T12:47:31.226Z,25.04
2022-10-16T12:52:40.695Z,30.79
2022-10-16T12:58:10.762Z,33.76
2022-10-16T13:03:24.195Z,33.03
2022-10-16T13:08:42.068Z,40.53
2022-10-16T13:14:21.273Z,38.10
2022-10-16T13:19:34.905Z,44.41
2022-10-16T13:24:54.181Z,50.86
2022-10-16T13:30:02.798Z,55.46
2022-10-16T13:35:04.983Z,58.64
2022-10-16T13:40:19.903Z,58.83
2022-10-16T13:45:23.376Z,57.67
2022-10-16T13:50:24.689Z,59.54
2022-10-16T13:55:25.978Z,62.85
2022-10-16T14:00:33.787Z,62.94
2022-10-16T14:05:35.531Z,64.77
2022-10-16T14:10:36.809Z,66.75
2022-10-16T14:15:38.481Z,68.29
2022-10-16T14:20:40.057Z,70.34
2022-10-16T14:25:41.365Z,71.18
2022-10-16T14:30:55.813Z,72.56
2022-10-16T14:36:06.804Z,73.05
2022-10-16T14:41:09.072Z,72.84
2022-10-16T14:46:16.324Z,72.96
2022-10-16T14:51:19.846Z,73.05
2022-10-16T14:56:26.280Z,73.90
2022-10-16T15:01:27.603Z,74.20
2022-10-16T15:06:28.882Z,74.40
2022-10-16T15:11:33.292Z,75.69
2022-10-16T15:16:34.547Z,75.53
2022-10-16T15:21:35.833Z,75.84
2022-10-16T15:26:37.114Z,76.21
2022-10-16T15:31:38.537Z,76.35
2022-10-16T15:36:40.563Z,78.36
2022-10-16T15:41:42.306Z,78.56
2022-10-16T15:46:43.975Z,79.11
2022-10-16T15:51:47.063Z,79.23
2022-10-16T15:56:48.308Z,80.10
2022-10-16T16:01:49.625Z,80.36
2022-10-16T16:06:50.883Z,81.42
2022-10-16T16:11:53.269Z,81.98
2022-10-16T16:16:55.750Z,83.21
2022-10-16T16:21:57.074Z,82.86
2022-10-16T16:26:58.343Z,83.13
2022-10-16T16:32:00.736Z,84.09
2022-10-16T16:37:02.026Z,84.90
2022-10-16T16:42:04.946Z,85.53
2022-10-16T16:47:06.838Z,86.42
2022-10-16T16:52:08.554Z,87.06
2022-10-16T16:57:09.968Z,87.74
2022-10-16T17:02:11.338Z,88.49
2022-10-16T17:07:12.796Z,88.53
2022-10-16T17:12:14.045Z,90.22
2022-10-16T17:17:15.278Z,90.76
2022-10-16T17:22:16.855Z,91.62
2022-10-16T17:27:19.592Z,92.07
2022-10-16T17:32:21.759Z,91.91
2022-10-16T17:37:23.038Z,92.42
2022-10-16T17:42:24.575Z,92.92
2022-10-16T17:47:26.174Z,93.96
2022-10-16T17:52:27.627Z,94.94
2022-10-16T17:57:29.031Z,95.84
2022-10-16T18:02:30.721Z,96.33
2022-10-16T18:07:32.528Z,96.93
2022-10-16T18:12:33.816Z,96.74
2022-10-16T18:17:38.041Z,97.73
2022-10-16T18:22:39.559Z,98.65
2022-10-16T18:27:40.872Z,99.08
2022-10-16T18:32:42.339Z,100.00
2022-10-16T18:37:46.778Z,100.00
2022-10-16T18:42:50.013Z,100.00
2022-10-16T18:47:51.287Z,100.00
2022-10-16T18:52:52.545Z,100.00
2022-10-16T18:57:55.073Z,100.00
2022-10-16T19:02:56.373Z,100.00
2022-10-16T19:07:58.504Z,100.00
2022-10-16T19:13:00.108Z,100.00
2022-10-16T19:18:01.380Z,100.00
2022-10-16T19:23:03.998Z,100.00
2022-10-16T19:28:08.312Z,100.00
2022-10-16T19:33:09.580Z,100.00
2022-10-16T19:38:10.826Z,100.00
2022-10-16T19:43:12.176Z,100.00
2022-10-16T19:48:13.506Z,100.00
2022-10-16T19:53:14.802Z,100.00
2022-10-16T19:58:16.087Z,100.00
2022-10-16T20:03:17.554Z,100.00
2022-10-16T20:08:18.937Z,100.00
2022-10-16T20:13:21.875Z,100.00
2022-10-16T20:18:23.404Z,100.00
2022-10-16T20:23:24.989Z,100.00
2022-10-16T20:28:26.310Z,100.00
2022-10-16T20:33:27.626Z,100.00
2022-10-16T20:38:29.072Z,100.00
2022-10-16T20:43:30.737Z,100.00
2022-10-16T20:48:32.202Z,100.00
2022-10-16T20:53:34.911Z,100.00
2022-10-16T20:58:40.094Z,100.00
2022-10-16T21:03:42.557Z,100.00
2022-10-16T21:08:43.995Z,100.00
2022-10-16T21:13:45.779Z,100.00
2022-10-16T21:18:47.780Z,100.00
2022-10-16T21:23:50.082Z,100.00
2022-10-16T21:28:57.328Z,100.00
2022-10-16T21:33:59.128Z,100.00
2022-10-16T21:39:02.529Z,100.00
2022-10-16T21:44:05.300Z,100.00
2022-10-16T21:49:10.872Z,100.00
2022-10-16T21:54:15.774Z,100.00
2022-10-16T21:59:17.583Z,100.00
2022-10-16T22:04:18.822Z,100.00
2022-10-16T22:09:20.112Z,100.00
2022-10-16T22:14:21.963Z,100.00
2022-10-16T22:19:23.334Z,100.00
2022-10-16T22:24:24.733Z,100.00
2022-10-16T22:29:26.011Z,100.00
2022-10-16T22:34:29.112Z,100.00
2022-10-16T22:39:30.491Z,100.00
2022-10-16T22:44:31.793Z,100.00
2022-10-16T22:49:33.063Z,100.00
2022-10-16T22:54:34.316Z,100.00
2022-10-16T22:59:35.545Z,100.00
2022-10-16T23:04:36.802Z,100.00
2022-10-16T23:09:38.099Z,100.00
2022-10-16T23:14:39.689Z,100.00
2022-10-16T23:19:40.942Z,100.00
2022-10-16T23:24:42.180Z,100.00
2022-10-16T23:29:43.415Z,100.00
2022-10-16T23:34:46.515Z,100.00
2022-10-16T23:39:47.751Z,100.00
2022-10-16T23:44:49.192Z,100.00
2022-10-16T23:49:50.427Z,100.00
2022-10-16T23:54:51.652Z,100.00
2022-10-16T23:59:52.932Z,100.00
